ENOL

Ørland Airport

Ørland, Norway
METAR ENOL 220250Z 27032G42KT 8000 -RADZ FEW006 SCT013 BKN030 08/06 Q0976 RERADZ
Observed Flight Rules
Sep-22 @ 02:50 UTC (34 minutes ago) Marginal Visual Flight Rules
Wind Visibility Clouds Conditions
270° at 32 knots
 Gusting to 42 knots
7,998 meters
Temperatures Readings
Current 8°C / 46°F
Dewpoint 6°C / 43°F
Humidity 87%
Altimeter 28.82" Hg
Pressure 976 hPa
Elevation 7
METAR ENOL 220250Z 27032G42KT 8000 -RADZ FEW006 SCT013 BKN030 08/06 Q0976 RERADZ
Observed Flight Rules
Sep-22 @ 02:50 UTC
(34 minutes ago)
MVFR
Wind Visibility
270° at 32 knots
 Gusting to 42 knots
7,998 meters
Clouds
Conditions
Temperature Dewpoint
8°C / 46°F 6°C / 43°F
Humidity Altimeter Pressure
87% 28.82" Hg 976 hPa